PHMK METAR and TAF | Updated Today

PHMK METAR

Molokai Airport

Observation time: 31 min. ago

PHMK 052054Z COR 04013G25KT 10SM SCT035 26/19 A3014 RMK AO2 SLP209 T02610194 53005

Need help? Read our tutorial on how to read METARs or read the parsed version below.

Molokai Airport (PHMK) METAR

  • Weather conditions on Sun, 05 Feb 2023 20:54:00 +0000 (31 min. ago):
  • Present conditions: Dry
  • Clouds: Scattered at 1067 meters
  • Visibility: 16093 meters
  • Wind: 40 degrees at 13 knots
  • Temperature: 26 celsius
  • Dew point: 19 celsius
  • Pressure: 30.14 inHg
  • Remarks: AO2 SLP209 T02610194 53005


Useful to know...

PHMK TAF

Molokai Airport

PHMK 051739Z 0518/0618 04010G21KT P6SM VCSH SCT020 BKN040 FM052000 05016G24KT P6SM VCSH SCT035 BKN050 FM060500 03010KT P6SM SCT025
Observation time: 3:46 hr. ago
Need help? Read our tutorial on how to read TAFs or read the parsed version below.

Parsed version of TAF for Molokai Airport (PHMK)

  • From 05 February at 18:00 UTC, to day 06 of the month at 18:00 UTC
  • Clouds: Scattered at 610 meters; broken sky at 1219 meters
  • Wind: 40 degrees at 10
  • Other: In the vicinity, showers of
  • From day 5 of the month at 20:00 UTC
  • Clouds: Scattered at 1067 meters; broken sky at 1524 meters
  • Wind: 50 degrees at 16
  • Other: In the vicinity, showers of
  • From day 6 of the month at 05:00 UTC
  • Clouds: Scattered at 762 meters
  • Wind: 30 degrees at 10